Time;durP1;ratioP1;P1;durP2;ratioP2;P2;SDS_P1;SDS_P2;PMS_P1;PMS_P2;Temp;Humidity;BMP_temperature;BMP_pressure;BME280_temperature;BME280_humidity;BME280_pressure;Samples;Min_cycle;Max_cycle;Signal;HPM_P1;HPM_P2
2023/10/11 00:00:45;;;;;;;61.77;56.77;;;;;;;15.52;100.00;100876.94;5073352;28;20550;-40
2023/10/11 00:03:16;;;;;;;63.60;58.60;;;;;;;15.53;100.00;100871.34;5073638;28;20495;-40
2023/10/11 00:05:46;;;;;;;62.57;58.17;;;;;;;15.53;100.00;100868.66;5074114;28;20802;-40
2023/10/11 00:08:17;;;;;;;64.03;59.70;;;;;;;15.54;100.00;100866.78;5088272;28;20454;-41
2023/10/11 00:10:53;;;;;;;61.70;57.50;;;;;;;15.53;100.00;100860.56;5073402;28;20433;-41
2023/10/11 00:13:22;;;;;;;60.03;55.93;;;;;;;15.54;100.00;100856.84;5073440;28;20441;-42
2023/10/11 00:15:51;;;;;;;60.60;55.90;;;;;;;15.54;100.00;100856.03;5073009;28;20512;-42
2023/10/11 00:18:20;;;;;;;61.80;57.50;;;;;;;15.55;100.00;100863.88;5072873;28;20545;-39
2023/10/11 00:20:51;;;;;;;59.90;55.50;;;;;;;15.56;100.00;100843.22;5073039;28;20470;-41
2023/10/11 00:23:23;;;;;;;58.97;54.70;;;;;;;15.59;100.00;100848.13;5073357;28;20426;-43
2023/10/11 00:25:53;;;;;;;58.33;54.60;;;;;;;15.59;100.00;100842.75;5073480;28;20427;-40
2023/10/11 00:28:24;;;;;;;56.97;53.20;;;;;;;15.59;100.00;100843.53;5072515;28;20458;-40
2023/10/11 00:30:53;;;;;;;59.93;55.93;;;;;;;15.61;100.00;100830.72;5072864;28;20466;-41
2023/10/11 00:33:21;;;;;;;59.00;54.93;;;;;;;15.60;100.00;100825.56;5073122;28;21241;-41
2023/10/11 00:36:05;;;;;;;61.77;57.57;;;;;;;15.56;100.00;100819.00;5072954;28;20437;-41
2023/10/11 00:38:43;;;;;;;57.70;53.77;;;;;;;15.56;100.00;100819.81;5072483;28;20457;-43
2023/10/11 00:41:17;;;;;;;58.47;54.47;;;;;;;15.55;100.00;100809.31;5072754;28;20465;-41
2023/10/11 00:43:51;;;;;;;61.10;56.97;;;;;;;15.54;100.00;100813.84;5072797;28;20488;-44
2023/10/11 00:46:22;;;;;;;60.33;55.90;;;;;;;15.53;100.00;100817.56;5072860;28;20801;-45
2023/10/11 00:48:54;;;;;;;60.03;56.13;;;;;;;15.52;100.00;100810.59;5071740;28;20450;-42
2023/10/11 00:51:24;;;;;;;59.70;55.90;;;;;;;15.49;100.00;100806.47;5072545;28;20431;-43
2023/10/11 00:53:54;;;;;;;60.47;56.53;;;;;;;15.49;100.00;100803.78;5072383;28;20495;-45
2023/10/11 00:56:26;;;;;;;57.97;54.10;;;;;;;15.48;100.00;100794.09;5086838;28;20785;-43
2023/10/11 00:58:55;;;;;;;60.70;56.30;;;;;;;15.48;100.00;100804.00;5082093;28;20490;-44
2023/10/11 01:01:23;;;;;;;61.20;56.70;;;;;;;15.48;100.00;100795.94;5080911;28;20524;-42
2023/10/11 01:03:51;;;;;;;58.13;54.03;;;;;;;15.48;100.00;100787.88;5081067;28;20429;-42
2023/10/11 01:06:25;;;;;;;59.03;55.33;;;;;;;15.49;100.00;100792.22;5072393;28;20852;-43
2023/10/11 01:08:54;;;;;;;58.83;54.53;;;;;;;15.49;100.00;100778.78;5080076;28;20821;-46
2023/10/11 01:11:23;;;;;;;58.50;54.77;;;;;;;15.47;100.00;100775.50;5077730;28;20429;-42
2023/10/11 01:13:51;;;;;;;56.80;53.20;;;;;;;15.45;100.00;100778.38;5075933;28;20426;-42
2023/10/11 01:16:24;;;;;;;59.40;55.10;;;;;;;15.44;100.00;100763.28;5078760;28;20443;-45
2023/10/11 01:18:52;;;;;;;59.07;54.80;;;;;;;15.45;100.00;100769.50;5079636;28;20837;-41
2023/10/11 01:21:21;;;;;;;60.10;55.80;;;;;;;15.46;100.00;100779.19;5080404;28;20501;-46
2023/10/11 01:23:49;;;;;;;58.60;54.30;;;;;;;15.44;100.00;100773.25;5080551;28;20841;-44
2023/10/11 01:26:17;;;;;;;60.07;56.00;;;;;;;15.45;100.00;100762.25;5074537;28;20434;-42
2023/10/11 01:28:45;;;;;;;60.50;56.53;;;;;;;15.44;100.00;100779.41;5079920;28;20462;-44
2023/10/11 01:31:16;;;;;;;61.07;56.97;;;;;;;15.44;100.00;100757.91;5080256;28;20849;-42
2023/10/11 01:33:48;;;;;;;60.90;56.83;;;;;;;15.43;100.00;100763.53;5080165;28;20437;-43
2023/10/11 01:36:21;;;;;;;61.03;56.90;;;;;;;15.40;100.00;100756.75;5076867;28;20524;-42
2023/10/11 01:38:50;;;;;;;61.47;57.53;;;;;;;15.41;100.00;100765.63;5067499;28;20470;-46
2023/10/11 01:41:21;;;;;;;64.20;59.97;;;;;;;15.39;100.00;100760.47;5051514;28;21016;-45
2023/10/11 01:43:50;;;;;;;62.13;57.40;;;;;;;15.38;100.00;100760.72;5051692;28;20437;-44
2023/10/11 01:46:24;;;;;;;62.83;58.73;;;;;;;15.37;100.00;100746.47;5051750;28;20907;-40
2023/10/11 01:48:53;;;;;;;63.37;58.73;;;;;;;15.37;100.00;100742.94;5051028;28;20457;-44
2023/10/11 01:51:26;;;;;;;61.37;57.27;;;;;;;15.40;100.00;100743.31;5051576;28;20427;-42
2023/10/11 01:53:56;;;;;;;61.20;57.50;;;;;;;15.39;100.00;100738.16;5051500;28;20436;-43
2023/10/11 01:56:24;;;;;;;63.17;58.80;;;;;;;15.37;100.00;100722.28;5051427;28;20466;-45
2023/10/11 01:58:52;;;;;;;64.33;59.50;;;;;;;15.39;100.00;100728.22;5058890;28;20488;-40
2023/10/11 02:01:22;;;;;;;64.00;59.63;;;;;;;15.39;100.00;100722.84;5077638;28;20466;-41
2023/10/11 02:03:54;;;;;;;63.70;59.40;;;;;;;15.40;100.00;100710.25;5080148;28;20427;-41
2023/10/11 02:06:22;;;;;;;63.10;59.20;;;;;;;15.41;100.00;100717.28;5079867;28;20499;-43
2023/10/11 02:08:51;;;;;;;63.63;59.20;;;;;;;15.41;100.00;100718.06;5078874;28;20457;-45
2023/10/11 02:11:24;;;;;;;64.50;59.90;;;;;;;15.43;100.00;100713.31;5079711;28;20435;-41
2023/10/11 02:13:52;;;;;;;61.47;56.67;;;;;;;15.45;100.00;100727.31;5079737;28;20433;-47
2023/10/11 02:16:20;;;;;;;63.43;58.90;;;;;;;15.46;100.00;100715.53;5076044;28;20815;-42
2023/10/11 02:18:51;;;;;;;64.97;60.30;;;;;;;15.47;100.00;100719.88;5067329;28;20832;-42
2023/10/11 02:21:20;;;;;;;64.40;60.10;;;;;;;15.49;100.00;100715.09;5055858;28;20898;-39
2023/10/11 02:23:48;;;;;;;65.97;61.57;;;;;;;15.52;100.00;100713.81;5086126;28;20426;-40
2023/10/11 02:26:16;;;;;;;68.13;63.40;;;;;;;15.59;100.00;100719.09;5057799;28;20431;-40
2023/10/11 02:28:48;;;;;;;63.80;59.07;;;;;;;15.62;100.00;100715.97;5057057;28;21064;-40
2023/10/11 02:31:20;;;;;;;68.30;63.10;;;;;;;15.62;100.00;100711.38;5070644;28;20429;-38
2023/10/11 02:33:51;;;;;;;66.73;62.10;;;;;;;15.65;100.00;100716.28;5078328;28;20451;-38
2023/10/11 02:36:20;;;;;;;69.30;64.43;;;;;;;15.67;100.00;100719.59;5077878;28;20492;-39
2023/10/11 02:38:50;;;;;;;69.30;64.30;;;;;;;15.71;100.00;100709.19;5075420;28;20458;-42
2023/10/11 02:41:24;;;;;;;73.23;68.00;;;;;;;15.70;100.00;100692.25;5082214;28;20666;-43
2023/10/11 02:43:54;;;;;;;71.80;67.30;;;;;;;15.72;100.00;100708.13;5081316;28;20422;-39
2023/10/11 02:46:23;;;;;;;70.57;65.60;;;;;;;15.73;100.00;100704.41;5082551;28;20944;-41
2023/10/11 02:48:54;;;;;;;72.17;66.77;;;;;;;15.74;100.00;100703.38;5080386;28;20508;-40
2023/10/11 02:51:25;;;;;;;70.47;65.93;;;;;;;15.76;100.00;100702.06;5085844;28;20794;-39
2023/10/11 02:53:53;;;;;;;71.70;66.27;;;;;;;15.79;100.00;100687.34;5078193;28;20956;-41
2023/10/11 02:56:24;;;;;;;72.23;66.90;;;;;;;15.81;100.00;100699.50;5086730;28;20529;-42
2023/10/11 02:58:53;;;;;;;73.13;67.87;;;;;;;15.82;100.00;100697.63;5095102;28;20484;-39
2023/10/11 03:01:21;;;;;;;73.63;68.30;;;;;;;15.84;100.00;100682.09;5098054;28;21224;-41
2023/10/11 03:03:49;;;;;;;74.87;68.70;;;;;;;15.86;100.00;100680.00;5098047;28;20524;-42
2023/10/11 03:06:18;;;;;;;75.50;69.97;;;;;;;15.83;100.00;100678.56;5090345;28;20426;-41
2023/10/11 03:08:46;;;;;;;79.83;74.10;;;;;;;15.85;100.00;100679.19;5089266;28;20461;-42
2023/10/11 03:11:16;;;;;;;78.23;73.23;;;;;;;15.86;100.00;100680.78;5099202;28;20917;-39
2023/10/11 03:13:44;;;;;;;79.03;73.23;;;;;;;15.87;100.00;100671.69;5085553;28;20473;-38
2023/10/11 03:16:16;;;;;;;77.17;71.60;;;;;;;15.86;100.00;100680.00;5092676;28;20437;-45
2023/10/11 03:18:46;;;;;;;75.93;70.63;;;;;;;15.89;100.00;100671.44;5085192;28;20458;-41
2023/10/11 03:21:19;;;;;;;78.83;72.90;;;;;;;15.92;100.00;100654.84;5084942;28;20500;-40
2023/10/11 03:23:48;;;;;;;85.73;79.80;;;;;;;15.92;100.00;100663.72;5085286;28;20469;-42
2023/10/11 03:26:22;;;;;;;85.67;80.40;;;;;;;15.92;100.00;100676.34;5080483;28;20449;-39
2023/10/11 03:28:57;;;;;;;86.57;80.47;;;;;;;15.94;100.00;100667.03;5088946;28;20491;-38
2023/10/11 03:31:28;;;;;;;87.97;82.00;;;;;;;15.95;100.00;100667.81;5101609;28;20448;-42
2023/10/11 03:33:57;;;;;;;93.37;86.60;;;;;;;15.97;100.00;100661.19;5101536;28;20444;-39
2023/10/11 03:36:32;;;;;;;97.87;90.97;;;;;;;15.96;100.00;100661.41;5096907;28;20438;-41
2023/10/11 03:39:08;;;;;;;91.10;84.87;;;;;;;15.99;100.00;100658.25;5089355;28;20461;-42
2023/10/11 03:41:44;;;;;;;88.43;82.90;;;;;;;15.99;100.00;100659.06;5081164;28;20473;-42
2023/10/11 03:44:17;;;;;;;91.93;85.53;;;;;;;16.01;100.00;100659.63;5081049;28;20525;-43
2023/10/11 03:46:47;;;;;;;95.60;87.90;;;;;;;16.01;100.00;100648.88;5081072;28;20525;-40
2023/10/11 03:51:57;;;;;;;93.23;86.53;;;;;;;16.02;100.00;100641.63;5092029;28;20432;-42
2023/10/11 03:54:25;;;;;;;91.93;85.47;;;;;;;16.00;100.00;100649.94;5101193;28;20435;-40
2023/10/11 03:56:54;;;;;;;93.73;87.83;;;;;;;16.02;100.00;100639.78;5093262;28;20451;-39
2023/10/11 03:59:24;;;;;;;91.40;85.40;;;;;;;16.02;100.00;100634.38;5087337;28;20541;-39
2023/10/11 04:01:54;;;;;;;94.63;86.37;;;;;;;16.02;100.00;100631.69;5080752;28;20553;-42
2023/10/11 04:04:22;;;;;;;93.77;86.43;;;;;;;16.01;100.00;100635.44;5096774;28;20472;-38
2023/10/11 04:06:51;;;;;;;88.83;83.03;;;;;;;16.02;100.00;100637.06;5088917;28;20720;-39
2023/10/11 04:09:32;;;;;;;92.03;85.53;;;;;;;16.02;100.00;100630.88;5088153;28;20462;-39
2023/10/11 04:12:00;;;;;;;88.77;82.63;;;;;;;16.03;100.00;100638.72;5089183;28;20430;-41
2023/10/11 04:14:40;;;;;;;92.50;86.00;;;;;;;16.02;100.00;100641.63;5088534;28;20495;-43
2023/10/11 04:17:14;;;;;;;92.53;86.03;;;;;;;16.03;100.00;100648.66;5088540;28;20508;-38
2023/10/11 04:19:43;;;;;;;90.57;84.10;;;;;;;16.04;100.00;100640.34;5087495;28;20451;-40
2023/10/11 04:22:12;;;;;;;89.17;83.10;;;;;;;16.07;100.00;100643.63;5090980;28;20478;-41
2023/10/11 04:24:41;;;;;;;85.50;79.30;;;;;;;16.08;100.00;100645.25;5084315;28;20434;-41
2023/10/11 04:30:17;;;;;;;81.87;75.70;;;;;;;16.16;100.00;100647.59;5079610;28;20459;-43
2023/10/11 04:32:46;;;;;;;85.80;79.67;;;;;;;16.19;100.00;100631.00;5086599;28;20425;-40
2023/10/11 04:35:22;;;;;;;88.13;81.37;;;;;;;16.19;100.00;100639.06;5079733;28;20434;-39
2023/10/11 04:37:54;;;;;;;86.23;78.20;;;;;;;16.18;100.00;100634.72;5087750;28;20499;-38
2023/10/11 04:40:39;;;;;;;85.93;79.10;;;;;;;16.19;100.00;100647.13;5087659;28;20462;-40
2023/10/11 04:43:20;;;;;;;84.77;78.40;;;;;;;16.20;100.00;100630.75;5079980;28;20462;-40
2023/10/11 04:45:50;;;;;;;83.23;77.63;;;;;;;16.25;100.00;100640.78;5095329;28;20429;-42
2023/10/11 04:48:36;;;;;;;87.60;80.27;;;;;;;16.23;100.00;100622.19;5077790;28;20445;-44
2023/10/11 04:51:07;;;;;;;84.37;78.27;;;;;;;16.27;100.00;100619.88;5082807;28;20436;-45
2023/10/11 04:53:45;;;;;;;85.30;78.13;;;;;;;16.27;100.00;100618.00;5078560;28;20465;-40
2023/10/11 04:58:59;;;;;;;85.07;78.87;;;;;;;16.24;100.00;100631.09;5067893;28;20460;-41
2023/10/11 05:01:57;;;;;;;88.97;82.23;;;;;;;16.23;100.00;100640.22;5057099;28;20434;-40
2023/10/11 05:04:15;;;;;;;86.50;80.23;;;;;;;16.26;100.00;100645.13;5061387;28;20528;-40
2023/10/11 05:06:45;;;;;;;88.13;81.00;;;;;;;16.25;100.00;100649.69;5052749;28;20520;-45
2023/10/11 05:09:21;;;;;;;90.50;83.50;;;;;;;16.26;100.00;100663.97;5051673;28;20885;-39
2023/10/11 05:11:53;;;;;;;92.40;85.63;;;;;;;16.24;100.00;100671.47;5052548;28;20783;-41
2023/10/11 05:14:28;;;;;;;92.97;84.57;;;;;;;16.25;100.00;100673.06;5064232;28;20435;-42
2023/10/11 05:17:16;;;;;;;91.13;84.10;;;;;;;16.24;100.00;100653.44;5063599;28;20445;-42
2023/10/11 05:19:53;;;;;;;87.80;81.33;;;;;;;16.27;100.00;100644.09;5059333;28;20458;-41
2023/10/11 05:22:30;;;;;;;89.03;82.17;;;;;;;16.28;100.00;100641.13;5064003;28;20505;-43
2023/10/11 05:25:37;;;;;;;86.40;79.33;;;;;;;16.29;100.00;100641.97;5072032;28;21002;-40
2023/10/11 05:28:07;;;;;;;92.60;84.17;;;;;;;16.33;100.00;100635.06;5071663;28;20454;-40
2023/10/11 05:30:35;;;;;;;90.33;84.27;;;;;;;16.35;100.00;100631.06;5083872;28;20445;-40
2023/10/11 05:36:14;;;;;;;100.20;92.50;;;;;;;16.38;100.00;100619.00;5078434;28;20444;-43
2023/10/11 05:52:30;;;;;;;87.87;80.27;;;;;;;16.41;100.00;100608.59;5051822;28;20474;-42
2023/10/11 05:54:59;;;;;;;86.43;79.23;;;;;;;16.41;100.00;100599.69;5051609;28;20953;-46
2023/10/11 05:57:28;;;;;;;81.37;75.37;;;;;;;16.45;100.00;100582.84;5051574;28;20457;-42
2023/10/11 05:59:56;;;;;;;86.60;79.70;;;;;;;16.45;100.00;100596.31;5050928;28;20455;-40
2023/10/11 06:02:25;;;;;;;89.57;82.27;;;;;;;16.47;100.00;100590.66;5059712;28;20427;-46
2023/10/11 06:04:52;;;;;;;85.37;77.87;;;;;;;16.48;100.00;100593.16;5051705;28;20486;-40
2023/10/11 06:07:22;;;;;;;86.53;78.40;;;;;;;16.50;100.00;100601.78;5059674;28;20458;-42
2023/10/11 06:09:53;;;;;;;85.37;77.90;;;;;;;16.49;100.00;100607.41;5072938;28;20488;-41
2023/10/11 06:12:26;;;;;;;88.40;81.30;;;;;;;16.49;100.00;100602.84;5074823;28;20461;-44
2023/10/11 06:14:55;;;;;;;84.27;76.30;;;;;;;16.51;100.00;100598.06;5075326;28;20434;-49
2023/10/11 06:17:32;;;;;;;85.30;78.00;;;;;;;16.51;100.00;100589.97;5079479;28;20465;-44
2023/10/11 06:20:23;;;;;;;81.00;74.50;;;;;;;16.52;100.00;100596.16;5078913;28;21024;-43
2023/10/11 06:22:49;;;;;;;87.27;79.90;;;;;;;16.52;100.00;100586.22;5079468;28;20552;-42
2023/10/11 06:25:22;;;;;;;85.13;78.57;;;;;;;16.56;100.00;100592.78;5079404;28;20429;-40
2023/10/11 06:30:37;;;;;;;85.43;77.47;;;;;;;16.59;100.00;100573.47;5075965;28;20982;-41
2023/10/11 06:33:06;;;;;;;82.20;75.20;;;;;;;16.63;100.00;100573.00;5082031;28;20922;-44
2023/10/11 06:35:43;;;;;;;82.03;75.60;;;;;;;16.64;100.00;100572.72;5079446;28;20437;-42
2023/10/11 06:38:12;;;;;;;81.50;75.23;;;;;;;16.68;100.00;100570.38;5087402;28;20483;-44
2023/10/11 06:40:47;;;;;;;82.43;76.07;;;;;;;16.69;100.00;100572.03;5079305;28;20510;-46
2023/10/11 06:43:14;;;;;;;84.87;77.60;;;;;;;16.72;100.00;100574.25;5070973;28;20836;-41
2023/10/11 06:45:43;;;;;;;81.53;75.40;;;;;;;16.75;100.00;100560.28;5079393;28;20521;-45
2023/10/11 06:48:13;;;;;;;80.40;74.43;;;;;;;16.78;100.00;100571.41;5075980;28;20885;-42
2023/10/11 06:50:41;;;;;;;80.23;73.97;;;;;;;16.76;100.00;100597.75;5081274;28;20466;-42
2023/10/11 06:53:10;;;;;;;79.57;73.10;;;;;;;16.82;100.00;100604.03;5083469;28;20425;-46
2023/10/11 06:55:39;;;;;;;76.33;70.20;;;;;;;16.85;100.00;100588.22;5075012;28;20442;-40
2023/10/11 06:58:15;;;;;;;75.30;69.33;;;;;;;16.86;100.00;100600.63;5081922;28;20453;-42
2023/10/11 07:00:46;;;;;;;74.93;68.13;;;;;;;16.91;100.00;100605.28;5054489;28;20934;-41
2023/10/11 07:03:26;;;;;;;73.83;67.50;;;;;;;16.96;100.00;100630.47;5056766;28;20951;-40
2023/10/11 07:05:58;;;;;;;72.13;66.13;;;;;;;16.97;100.00;100626.69;5059095;28;20427;-44
2023/10/11 07:08:32;;;;;;;71.63;65.63;;;;;;;17.00;100.00;100607.34;5054239;28;20857;-39
2023/10/11 07:11:10;;;;;;;71.60;65.77;;;;;;;16.98;100.00;100596.00;5054724;28;20488;-41
2023/10/11 07:13:54;;;;;;;75.43;68.73;;;;;;;17.00;100.00;100590.38;5063292;28;20431;-46
2023/10/11 07:16:27;;;;;;;71.63;65.50;;;;;;;16.98;100.00;100590.63;5062790;28;20431;-46
2023/10/11 07:18:56;;;;;;;71.60;65.47;;;;;;;16.99;100.00;100596.84;5069686;28;20465;-46
2023/10/11 07:21:27;;;;;;;73.97;68.07;;;;;;;16.96;100.00;100597.31;5082578;28;20552;-40
2023/10/11 07:24:04;;;;;;;74.47;67.80;;;;;;;16.96;100.00;100592.75;5083087;28;20627;-43
2023/10/11 07:26:56;;;;;;;73.10;66.67;;;;;;;16.95;100.00;100601.88;5078760;28;20467;-43
2023/10/11 07:29:24;;;;;;;75.40;69.00;;;;;;;16.97;100.00;100599.75;5077449;28;20461;-45
2023/10/11 07:31:53;;;;;;;75.13;68.90;;;;;;;17.00;100.00;100599.28;5079033;28;20512;-43
2023/10/11 07:34:20;;;;;;;68.40;62.80;;;;;;;17.07;100.00;100599.13;5082594;28;20436;-43
2023/10/11 07:36:49;;;;;;;70.67;63.67;;;;;;;17.11;100.00;100589.50;5082777;28;20438;-42
2023/10/11 07:39:25;;;;;;;72.60;66.83;;;;;;;17.13;100.00;100600.84;5075453;28;20985;-42
2023/10/11 07:42:00;;;;;;;73.67;67.73;;;;;;;17.15;100.00;100594.16;5087475;28;20783;-43
2023/10/11 07:44:31;;;;;;;69.70;63.93;;;;;;;17.25;100.00;100592.69;5074013;28;20473;-44
2023/10/11 07:46:59;;;;;;;70.17;64.77;;;;;;;17.31;100.00;100589.03;5073872;28;20431;-40
2023/10/11 07:49:26;;;;;;;68.73;62.80;;;;;;;17.34;100.00;100594.75;5076539;28;20471;-42
2023/10/11 07:51:59;;;;;;;68.47;63.17;;;;;;;17.40;100.00;100579.47;5078758;28;20430;-42
2023/10/11 07:54:27;;;;;;;68.73;62.23;;;;;;;17.47;100.00;100570.16;5082073;28;20426;-42
2023/10/11 07:56:57;;;;;;;66.80;61.47;;;;;;;17.58;100.00;100581.97;5081144;28;20801;-43
2023/10/11 07:59:27;;;;;;;68.07;62.83;;;;;;;17.68;100.00;100582.13;5075667;28;20488;-42
2023/10/11 08:01:57;;;;;;;69.53;63.93;;;;;;;17.78;100.00;100584.13;5078417;28;20480;-42
2023/10/11 08:04:28;;;;;;;73.03;67.07;;;;;;;17.88;100.00;100573.50;5081916;28;21110;-42
2023/10/11 08:07:04;;;;;;;67.17;62.00;;;;;;;17.96;100.00;100564.97;5082280;28;20430;-42
2023/10/11 08:09:45;;;;;;;72.23;66.53;;;;;;;18.01;100.00;100578.56;5077216;28;20465;-42
2023/10/11 08:12:14;;;;;;;68.93;63.73;;;;;;;18.04;100.00;100578.84;5077105;28;20429;-44
2023/10/11 08:14:44;;;;;;;72.20;66.60;;;;;;;18.13;100.00;100590.03;5079903;28;20921;-46
2023/10/11 08:17:19;;;;;;;71.13;65.90;;;;;;;18.08;100.00;100579.16;5081662;28;20448;-41
2023/10/11 08:19:49;;;;;;;70.20;64.83;;;;;;;17.96;100.00;100592.78;5078778;28;20506;-43
2023/10/11 08:22:22;;;;;;;70.17;64.40;;;;;;;17.92;100.00;100580.03;5076897;28;20529;-41
2023/10/11 08:24:56;;;;;;;70.30;64.97;;;;;;;17.83;100.00;100590.41;5079038;28;20527;-40
2023/10/11 08:27:27;;;;;;;69.50;63.83;;;;;;;17.85;100.00;100592.88;5081677;28;20445;-45
2023/10/11 08:30:06;;;;;;;72.27;67.27;;;;;;;17.76;100.00;100602.44;5081127;28;20454;-42
2023/10/11 08:32:38;;;;;;;72.00;66.73;;;;;;;17.74;100.00;100602.69;5081706;28;20917;-46
2023/10/11 08:35:09;;;;;;;68.27;62.60;;;;;;;17.67;100.00;100592.09;5081492;28;20429;-46
2023/10/11 08:37:37;;;;;;;67.43;62.60;;;;;;;17.77;100.00;100594.09;5081506;28;20541;-46
2023/10/11 08:40:20;;;;;;;69.37;63.90;;;;;;;17.79;100.00;100597.38;5080719;28;20458;-40
2023/10/11 08:42:49;;;;;;;67.67;62.53;;;;;;;17.79;100.00;100612.75;5078779;28;20462;-40
2023/10/11 08:45:24;;;;;;;69.40;63.10;;;;;;;17.81;100.00;100605.22;5072758;28;20481;-42
2023/10/11 08:47:54;;;;;;;67.73;62.43;;;;;;;17.78;100.00;100595.75;5081161;28;21030;-44
2023/10/11 08:50:22;;;;;;;66.47;61.03;;;;;;;17.88;100.00;100595.91;5080765;28;20572;-42
2023/10/11 08:52:54;;;;;;;64.87;60.07;;;;;;;17.96;100.00;100603.56;5081204;28;20862;-43
2023/10/11 08:55:24;;;;;;;68.97;64.17;;;;;;;17.98;100.00;100601.44;5074673;28;20445;-40
2023/10/11 08:57:53;;;;;;;66.70;61.80;;;;;;;18.01;100.00;100608.22;5084636;28;20457;-42
2023/10/11 09:00:29;;;;;;;63.20;58.70;;;;;;;17.87;100.00;100594.25;5075413;28;20446;-44
2023/10/11 09:03:17;;;;;;;65.90;61.33;;;;;;;17.82;100.00;100594.19;5077497;28;20438;-42
2023/10/11 09:05:47;;;;;;;62.70;58.30;;;;;;;17.77;100.00;100596.78;5072642;28;20488;-42
2023/10/11 09:08:21;;;;;;;62.50;58.20;;;;;;;17.84;100.00;100618.22;5080445;28;20454;-45
2023/10/11 09:10:51;;;;;;;62.50;57.97;;;;;;;17.94;100.00;100635.38;5080789;28;20487;-46
2023/10/11 09:13:26;;;;;;;61.87;56.97;;;;;;;18.12;100.00;100635.09;5080767;28;20429;-42
2023/10/11 09:15:55;;;;;;;61.57;56.17;;;;;;;18.38;100.00;100628.16;5080585;28;20449;-41
2023/10/11 09:18:31;;;;;;;63.23;58.43;;;;;;;18.51;100.00;100614.34;5079710;28;20469;-42
2023/10/11 09:21:08;;;;;;;62.07;57.50;;;;;;;18.53;100.00;100625.69;5080854;28;20433;-44
2023/10/11 09:23:37;;;;;;;68.57;62.53;;;;;;;18.41;100.00;100621.44;5080607;28;20946;-42
2023/10/11 09:26:06;;;;;;;64.87;60.10;;;;;;;18.34;100.00;100615.44;5081142;28;20478;-41
2023/10/11 09:28:40;;;;;;;62.83;58.30;;;;;;;18.28;100.00;100621.81;5078970;28;20461;-43
2023/10/11 09:31:11;;;;;;;65.67;60.57;;;;;;;18.17;100.00;100615.47;5080347;28;20447;-40
2023/10/11 09:33:49;;;;;;;65.30;60.20;;;;;;;18.16;100.00;100614.63;5080761;28;20430;-45
2023/10/11 09:36:20;;;;;;;65.17;59.33;;;;;;;18.18;100.00;100598.22;5080518;28;20425;-41
2023/10/11 09:38:54;;;;;;;63.77;59.13;;;;;;;18.27;100.00;100601.28;5079432;28;20458;-43
2023/10/11 09:41:26;;;;;;;62.13;57.10;;;;;;;18.43;100.00;100603.13;5080252;28;20435;-41
2023/10/11 09:43:57;;;;;;;64.43;59.10;;;;;;;18.48;100.00;100609.41;5078213;28;20960;-44
2023/10/11 09:46:29;;;;;;;61.47;55.60;;;;;;;18.59;100.00;100615.75;5075168;28;20561;-40
2023/10/11 09:49:00;;;;;;;61.30;56.33;;;;;;;18.54;100.00;100619.22;5076320;28;20458;-43
2023/10/11 09:51:30;;;;;;;61.63;56.90;;;;;;;18.66;100.00;100616.41;5082673;28;20480;-44
2023/10/11 09:54:07;;;;;;;65.03;59.70;;;;;;;18.64;100.00;100618.50;5083429;28;20472;-47
2023/10/11 09:56:45;;;;;;;63.50;59.07;;;;;;;18.78;100.00;100608.97;5083455;28;20429;-45
2023/10/11 09:59:23;;;;;;;61.67;57.57;;;;;;;18.74;100.00;100621.34;5081931;28;20449;-43
2023/10/11 10:02:02;;;;;;;61.37;57.30;;;;;;;18.87;100.00;100603.94;5077081;28;20429;-47
2023/10/11 10:04:57;;;;;;;59.83;55.83;;;;;;;18.99;100.00;100612.69;5074804;28;20425;-45
2023/10/11 10:07:32;;;;;;;60.47;55.77;;;;;;;19.01;100.00;100605.97;5080746;28;20479;-42
2023/10/11 10:10:01;;;;;;;60.93;56.93;;;;;;;19.08;100.00;100605.75;5077637;28;20987;-42
2023/10/11 10:12:33;;;;;;;57.27;52.97;;;;;;;19.00;100.00;100609.72;5074380;28;20953;-42
2023/10/11 10:15:04;;;;;;;56.67;52.90;;;;;;;18.94;100.00;100605.34;5076215;28;20526;-44
2023/10/11 10:17:32;;;;;;;59.27;55.13;;;;;;;18.83;100.00;100609.00;5082179;28;20457;-44
2023/10/11 10:20:42;;;;;;;62.27;57.00;;;;;;;18.73;100.00;100606.19;5075451;28;20553;-39
2023/10/11 10:23:32;;;;;;;61.13;56.93;;;;;;;18.58;100.00;100620.34;5079808;28;20437;-41
2023/10/11 10:26:40;;;;;;;57.03;53.53;;;;;;;18.51;100.00;100625.13;5079697;28;20846;-40
2023/10/11 10:29:11;;;;;;;56.23;52.33;;;;;;;18.39;100.00;100631.69;5082217;28;20540;-44
2023/10/11 10:32:06;;;;;;;55.03;50.97;;;;;;;18.44;100.00;100637.13;5079795;28;20430;-45
2023/10/11 10:34:33;;;;;;;57.77;53.50;;;;;;;18.54;100.00;100640.00;5082624;28;21170;-42
2023/10/11 10:37:07;;;;;;;57.37;53.50;;;;;;;18.54;100.00;100642.72;5075829;28;20432;-45
2023/10/11 10:39:46;;;;;;;58.73;54.80;;;;;;;18.48;100.00;100640.97;5078450;28;20580;-44
2023/10/11 10:42:16;;;;;;;56.77;52.27;;;;;;;18.48;100.00;100633.69;5079547;28;20432;-43
2023/10/11 10:44:51;;;;;;;57.73;53.63;;;;;;;18.52;100.00;100632.16;5079238;28;20814;-40
2023/10/11 10:47:28;;;;;;;57.70;53.53;;;;;;;18.51;100.00;100627.84;5071758;28;20454;-42
2023/10/11 10:49:56;;;;;;;58.33;53.50;;;;;;;18.44;100.00;100620.94;5075699;28;20497;-43
2023/10/11 10:52:29;;;;;;;57.87;53.07;;;;;;;18.47;100.00;100610.47;5080714;28;20449;-42
2023/10/11 10:55:01;;;;;;;57.30;53.10;;;;;;;18.61;100.00;100625.22;5076365;28;20425;-44
2023/10/11 10:57:36;;;;;;;56.67;51.80;;;;;;;18.62;100.00;100599.06;5072869;28;20821;-42
2023/10/11 11:00:05;;;;;;;56.93;52.53;;;;;;;18.72;100.00;100591.06;5081977;28;20451;-44
2023/10/11 11:02:34;;;;;;;56.90;52.50;;;;;;;18.73;100.00;100585.41;5079473;28;20421;-43
2023/10/11 11:05:13;;;;;;;54.23;50.70;;;;;;;18.70;100.00;100590.50;5079196;28;20482;-41
2023/10/11 11:07:47;;;;;;;59.20;54.23;;;;;;;18.66;100.00;100584.81;5079460;28;20457;-42
2023/10/11 11:10:20;;;;;;;58.33;54.20;;;;;;;18.62;100.00;100593.66;5077705;28;20461;-39
2023/10/11 11:12:48;;;;;;;55.23;51.77;;;;;;;18.52;100.00;100593.50;5075220;28;20432;-42
2023/10/11 11:15:20;;;;;;;58.27;54.37;;;;;;;18.53;100.00;100593.28;5082096;28;20441;-46
2023/10/11 11:17:50;;;;;;;56.03;52.33;;;;;;;18.42;100.00;100607.69;5075680;28;20460;-46
2023/10/11 11:20:28;;;;;;;56.33;52.27;;;;;;;18.36;100.00;100608.72;5080949;28;20817;-44
2023/10/11 11:22:57;;;;;;;54.37;50.57;;;;;;;18.34;100.00;100589.22;5076820;28;20436;-43
2023/10/11 11:25:28;;;;;;;58.00;53.47;;;;;;;18.40;100.00;100587.44;5080965;28;20511;-42
2023/10/11 11:28:08;;;;;;;57.03;52.90;;;;;;;18.47;100.00;100605.06;5078613;28;20532;-43
2023/10/11 11:30:35;;;;;;;57.00;53.07;;;;;;;18.45;100.00;100587.47;5073717;28;20433;-42
2023/10/11 11:33:13;;;;;;;57.03;53.13;;;;;;;18.44;100.00;100602.84;5077752;28;20434;-42
2023/10/11 11:35:44;;;;;;;56.43;51.93;;;;;;;18.33;100.00;100587.59;5082800;28;20430;-43
2023/10/11 11:38:21;;;;;;;57.03;52.63;;;;;;;18.33;100.00;100579.50;5082055;28;20866;-44
2023/10/11 11:40:51;;;;;;;56.57;52.53;;;;;;;18.30;100.00;100596.22;5082699;28;20437;-45
2023/10/11 11:43:20;;;;;;;56.77;52.53;;;;;;;18.34;100.00;100585.72;5082558;28;20528;-42
2023/10/11 11:45:51;;;;;;;55.83;52.50;;;;;;;18.20;100.00;100586.09;5074179;28;20496;-43
2023/10/11 11:48:23;;;;;;;56.17;52.50;;;;;;;18.27;100.00;100585.09;5081861;28;20449;-42
2023/10/11 11:50:50;;;;;;;58.20;53.67;;;;;;;18.21;100.00;100582.34;5082444;28;20427;-41
2023/10/11 11:53:19;;;;;;;57.00;52.40;;;;;;;18.25;100.00;100575.34;5073705;28;20928;-45